Time;durP1;ratioP1;P1;durP2;ratioP2;P2;SDS_P1;SDS_P2;PMS_P1;PMS_P2;Temp;Humidity;BMP_temperature;BMP_pressure;BME280_temperature;BME280_humidity;BME280_pressure;Samples;Min_cycle;Max_cycle;Signal;HPM_P1;HPM_P2
2022/10/15 00:01:50;;;;;;;;;6.50;6.00;;;;;17.48;75.31;100256.28;4995738;28;46344;-77
2022/10/15 00:04:16;;;;;;;;;7.25;7.00;;;;;17.51;75.40;100255.94;4995557;28;46305;-77
2022/10/15 00:10:03;;;;;;;;;8.75;6.25;;;;;17.59;74.89;100252.50;4993472;28;45635;-79
2022/10/15 00:12:29;;;;;;;;;8.00;7.00;;;;;17.59;75.33;100249.84;4995345;28;46431;-78
2022/10/15 00:14:54;;;;;;;;;7.50;6.25;;;;;17.61;74.73;100250.53;4995475;28;45562;-77
2022/10/15 00:17:19;;;;;;;;;6.00;6.00;;;;;17.65;74.78;100251.03;4995384;28;46025;-78
2022/10/15 00:19:45;;;;;;;;;6.75;6.75;;;;;17.63;74.92;100251.19;4995534;28;45578;-78
2022/10/15 00:22:10;;;;;;;;;8.75;7.25;;;;;17.68;74.64;100253.34;4995328;28;45751;-78
2022/10/15 00:24:36;;;;;;;;;5.25;5.00;;;;;17.70;74.81;100246.09;4995245;28;45604;-78
2022/10/15 00:27:01;;;;;;;;;5.00;5.00;;;;;17.69;74.62;100245.25;4995247;28;45630;-78
2022/10/15 00:29:27;;;;;;;;;7.00;6.00;;;;;17.70;75.05;100236.31;4977442;28;45605;-78
2022/10/15 00:31:53;;;;;;;;;6.25;5.00;;;;;17.73;74.62;100243.09;4994983;28;45671;-78
2022/10/15 00:34:18;;;;;;;;;8.00;6.00;;;;;17.75;75.17;100243.75;4995156;28;46347;-78
2022/10/15 00:40:07;;;;;;;;;5.00;5.00;;;;;17.78;74.49;100233.66;4995069;28;45610;-78
2022/10/15 00:42:32;;;;;;;;;5.75;5.75;;;;;17.79;74.69;100234.50;4994911;28;46386;-78
2022/10/15 00:44:59;;;;;;;;;6.00;4.00;;;;;17.80;74.70;100233.50;4994975;28;46047;-78
2022/10/15 00:47:46;;;;;;;;;4.00;4.00;;;;;17.80;74.68;100233.50;4995139;28;45766;-78
2022/10/15 00:50:18;;;;;;;;;5.25;4.75;;;;;17.78;75.01;100224.88;4995047;28;45434;-78
2022/10/15 00:53:05;;;;;;;;;5.00;5.00;;;;;17.83;74.33;100234.00;4994759;28;45696;-77
2022/10/15 00:55:33;;;;;;;;;6.75;4.75;;;;;17.83;74.30;100230.50;4995133;28;46023;-78
2022/10/15 00:58:06;;;;;;;;;5.00;4.25;;;;;17.84;74.23;100226.88;4995033;28;45797;-78
2022/10/15 01:00:32;;;;;;;;;4.00;4.00;;;;;17.85;74.82;100224.06;4993425;28;45557;-78
2022/10/15 01:02:58;;;;;;;;;5.50;5.00;;;;;17.86;74.23;100225.72;4994658;28;46814;-77
2022/10/15 01:05:24;;;;;;;;;5.00;4.00;;;;;17.87;74.26;100223.88;4994719;28;45976;-77
2022/10/15 01:07:50;;;;;;;;;5.00;4.50;;;;;17.84;74.43;100213.63;4994829;28;45466;-77
2022/10/15 01:10:17;;;;;;;;;4.50;4.00;;;;;17.87;74.27;100216.75;4994453;28;45774;-77
2022/10/15 01:13:11;;;;;;;;;3.25;2.00;;;;;17.87;74.56;100205.31;4976621;28;47082;-78
2022/10/15 01:15:52;;;;;;;;;6.00;5.25;;;;;17.87;74.68;100202.66;4994673;28;45719;-78
2022/10/15 01:18:47;;;;;;;;;5.75;4.75;;;;;17.87;74.35;100197.38;4994714;28;45761;-78
2022/10/15 01:21:24;;;;;;;;;3.50;3.00;;;;;17.87;74.43;100190.25;4994687;28;45818;-78
2022/10/15 01:24:27;;;;;;;;;4.00;4.00;;;;;17.87;74.91;100192.06;4994428;28;45517;-78
2022/10/15 01:26:55;;;;;;;;;4.75;3.00;;;;;17.87;74.59;100194.72;4994234;28;46568;-78
2022/10/15 01:29:42;;;;;;;;;3.00;2.00;;;;;17.86;74.39;100183.31;4994528;28;45779;-79
2022/10/15 01:32:21;;;;;;;;;1.25;0.25;;;;;17.87;74.71;100181.47;4994455;28;45612;-78
2022/10/15 01:34:56;;;;;;;;;2.25;2.00;;;;;17.86;74.59;100166.59;4994389;28;45584;-78
2022/10/15 01:37:49;;;;;;;;;4.00;3.00;;;;;17.86;74.82;100162.13;4995271;28;45875;-78
2022/10/15 01:40:23;;;;;;;;;1.50;1.50;;;;;17.84;75.08;100157.97;4997811;28;45603;-77
2022/10/15 01:42:59;;;;;;;;;2.50;2.00;;;;;17.83;74.96;100162.44;4997926;28;45682;-78
2022/10/15 01:45:32;;;;;;;;;3.50;3.00;;;;;17.83;74.87;100151.00;4997873;28;45707;-78
2022/10/15 01:48:03;;;;;;;;;3.00;3.00;;;;;17.81;74.91;100139.75;4997906;28;46186;-77
2022/10/15 01:53:51;;;;;;;;;2.00;2.00;;;;;17.81;75.05;100145.88;4997621;28;45747;-77
2022/10/15 01:56:20;;;;;;;;;3.25;3.00;;;;;17.80;74.65;100143.41;4979715;28;46443;-77
2022/10/15 01:58:49;;;;;;;;;4.75;4.00;;;;;17.78;74.69;100134.78;4997511;28;46083;-78
2022/10/15 02:01:15;;;;;;;;;5.00;3.50;;;;;17.77;75.09;100127.81;4997690;28;45683;-78
2022/10/15 02:03:51;;;;;;;;;5.00;4.00;;;;;17.76;75.20;100123.53;4997727;28;45553;-78
2022/10/15 02:09:58;;;;;;;;;3.75;3.25;;;;;17.73;75.03;100115.91;4997051;28;45818;-77
2022/10/15 02:12:57;;;;;;;;;3.00;3.00;;;;;17.73;75.44;100097.34;4997203;28;45729;-78
2022/10/15 02:15:28;;;;;;;;;3.25;3.25;;;;;17.74;75.40;100097.19;4997442;28;45728;-77
2022/10/15 02:18:01;;;;;;;;;4.75;4.00;;;;;17.73;75.25;100095.53;4997437;28;46503;-77
2022/10/15 02:21:03;;;;;;;;;2.75;2.75;;;;;17.74;75.02;100091.06;4997376;28;46034;-77
2022/10/15 02:23:39;;;;;;;;;3.00;3.00;;;;;17.73;74.76;100084.09;4996296;28;45645;-77
2022/10/15 02:26:09;;;;;;;;;5.00;4.00;;;;;17.73;74.92;100074.34;4997678;28;45474;-77
2022/10/15 02:28:40;;;;;;;;;4.50;4.00;;;;;17.72;75.33;100062.06;4997116;28;46631;-77
2022/10/15 02:31:07;;;;;;;;;4.75;3.00;;;;;17.72;75.13;100061.25;4997181;28;45841;-77
2022/10/15 02:33:36;;;;;;;;;4.00;4.00;;;;;17.73;75.11;100062.91;4997064;28;45768;-77
2022/10/15 02:36:02;;;;;;;;;4.75;3.25;;;;;17.73;75.41;100060.25;4997265;28;45676;-77
2022/10/15 02:38:31;;;;;;;;;3.75;3.00;;;;;17.73;75.56;100049.66;4996867;28;46350;-77
2022/10/15 02:40:57;;;;;;;;;4.00;4.00;;;;;17.72;75.37;100029.44;4997071;28;46257;-77
2022/10/15 02:43:23;;;;;;;;;3.50;3.50;;;;;17.73;75.28;100033.75;4996762;28;45696;-77
2022/10/15 02:45:49;;;;;;;;;3.00;3.00;;;;;17.73;75.69;100028.47;4997121;28;45596;-77
2022/10/15 02:48:14;;;;;;;;;3.25;3.25;;;;;17.73;75.30;100023.16;4996521;28;45690;-77
2022/10/15 02:50:40;;;;;;;;;2.75;2.75;;;;;17.74;75.24;100032.78;4996809;28;45712;-77
2022/10/15 02:53:06;;;;;;;;;4.00;3.25;;;;;17.72;75.23;100024.97;4996841;28;45692;-77
2022/10/15 02:55:31;;;;;;;;;2.25;2.25;;;;;17.74;75.09;100016.88;4997091;28;45697;-77
2022/10/15 02:57:57;;;;;;;;;2.75;2.75;;;;;17.72;75.54;100022.34;4996749;28;46292;-77
2022/10/15 03:00:23;;;;;;;;;3.00;3.00;;;;;17.75;75.64;100018.53;4996630;28;45584;-77
2022/10/15 03:02:48;;;;;;;;;2.00;2.00;;;;;17.75;75.41;100013.22;4996479;28;45573;-77
2022/10/15 03:05:13;;;;;;;;;3.00;2.25;;;;;17.72;75.82;100013.56;4996967;28;45506;-77
2022/10/15 03:11:01;;;;;;;;;2.00;2.00;;;;;17.74;75.59;100001.81;4994469;28;45889;-77
2022/10/15 03:13:27;;;;;;;;;2.00;2.00;;;;;17.74;75.69;100004.44;4996392;28;45624;-77
2022/10/15 03:15:53;;;;;;;;;2.00;1.50;;;;;17.75;75.73;99990.22;4978835;28;45836;-77
2022/10/15 03:18:18;;;;;;;;;2.00;2.00;;;;;17.73;75.91;99978.13;4996369;28;45463;-77
2022/10/15 03:27:08;;;;;;;;;1.00;1.00;;;;;17.75;75.81;99968.19;4996200;28;45580;-77
2022/10/15 03:29:33;;;;;;;;;1.00;1.00;;;;;17.74;75.77;99967.34;4978293;28;46342;-77
2022/10/15 03:31:59;;;;;;;;;1.75;1.00;;;;;17.74;75.87;99958.56;4996027;28;46116;-77
2022/10/15 03:34:24;;;;;;;;;0.25;0.25;;;;;17.72;76.07;99950.78;4996416;28;46043;-77
2022/10/15 03:36:50;;;;;;;;;1.00;1.00;;;;;17.72;76.02;99956.09;4996341;28;45610;-77
2022/10/15 03:39:15;;;;;;;;;0.00;0.00;;;;;17.70;76.53;99951.97;4996013;28;45744;-78
2022/10/15 03:41:41;;;;;;;;;0.00;0.00;;;;;17.71;76.15;99950.94;4995906;28;46187;-78
2022/10/15 03:44:07;;;;;;;;;0.00;0.00;;;;;17.73;76.46;99946.31;4996098;28;45573;-78
2022/10/15 03:46:33;;;;;;;;;0.00;0.00;;;;;17.72;76.43;99942.84;4994743;28;45568;-78
2022/10/15 03:48:59;;;;;;;;;0.00;0.00;;;;;17.71;76.13;99940.34;4995864;28;45624;-78
2022/10/15 03:51:25;;;;;;;;;0.00;0.00;;;;;17.71;76.74;99929.75;4995989;28;46063;-77
2022/10/15 03:53:50;;;;;;;;;0.00;0.00;;;;;17.71;76.39;99935.88;4996039;28;45811;-77
2022/10/15 03:56:16;;;;;;;;;0.00;0.00;;;;;17.73;76.38;99941.84;4996226;28;45607;-76
2022/10/15 03:58:41;;;;;;;;;0.00;0.00;;;;;17.74;76.96;99932.91;4995760;28;46624;-77
2022/10/15 04:01:12;;;;;;;;;0.75;0.00;;;;;17.73;76.20;99930.41;4977465;28;45694;-77
2022/10/15 04:03:38;;;;;;;;;0.00;0.00;;;;;17.75;76.80;99931.09;4995867;28;45510;-77
2022/10/15 04:06:04;;;;;;;;;0.75;0.00;;;;;17.74;76.64;99926.78;4996048;28;45804;-77
2022/10/15 04:08:29;;;;;;;;;0.00;0.00;;;;;17.75;76.85;99921.31;4995592;28;45889;-77
2022/10/15 04:10:54;;;;;;;;;0.00;0.00;;;;;17.72;76.47;99912.88;4995387;28;45639;-77
2022/10/15 04:13:20;;;;;;;;;0.00;0.00;;;;;17.75;77.09;99918.66;4995619;28;45619;-77
2022/10/15 04:15:45;;;;;;;;;0.00;0.00;;;;;17.75;77.18;99923.97;4995953;28;45830;-76
2022/10/15 04:18:11;;;;;;;;;0.00;0.00;;;;;17.74;77.31;99922.31;4995555;28;45636;-77
2022/10/15 04:20:37;;;;;;;;;0.00;0.00;;;;;17.72;77.44;99911.03;4995612;28;46545;-76
2022/10/15 04:26:24;;;;;;;;;0.00;0.00;;;;;17.70;77.49;99902.47;4995359;28;45617;-76
2022/10/15 04:28:49;;;;;;;;;0.00;0.00;;;;;17.70;77.77;99907.75;4995265;28;46692;-76
2022/10/15 04:31:15;;;;;;;;;0.25;0.00;;;;;17.70;77.97;99912.22;4995273;28;45933;-76
2022/10/15 04:33:40;;;;;;;;;0.00;0.00;;;;;17.70;78.44;99914.88;4995164;28;46031;-77
2022/10/15 04:36:10;;;;;;;;;0.00;0.00;;;;;17.69;78.24;99907.91;4995629;28;45793;-77
2022/10/15 04:41:58;;;;;;;;;0.00;0.00;;;;;17.68;78.49;99901.78;4994877;28;45920;-77
2022/10/15 04:44:24;;;;;;;;;0.00;0.00;;;;;17.69;78.30;99907.91;4994802;28;45707;-77
2022/10/15 04:46:49;;;;;;;;;0.00;0.00;;;;;17.69;78.59;99911.41;4995933;28;45699;-77
2022/10/15 04:49:15;;;;;;;;;0.75;0.00;;;;;17.69;78.49;99900.81;4996290;28;46583;-77
2022/10/15 04:51:40;;;;;;;;;0.00;0.00;;;;;17.71;78.59;99911.22;4994317;28;45757;-77
2022/10/15 04:54:06;;;;;;;;;0.00;0.00;;;;;17.70;78.53;99912.22;4994989;28;45815;-77
2022/10/15 04:56:31;;;;;;;;;0.00;0.00;;;;;17.70;78.76;99906.94;4994995;28;45549;-75
2022/10/15 04:58:56;;;;;;;;;0.00;0.00;;;;;17.71;78.82;99916.50;4994875;28;46673;-75
2022/10/15 05:01:22;;;;;;;;;0.00;0.00;;;;;17.72;78.96;99919.00;4994988;28;46550;-76
2022/10/15 05:03:48;;;;;;;;;0.00;0.00;;;;;17.71;78.88;99916.50;4994820;28;45645;-76
2022/10/15 05:06:19;;;;;;;;;0.00;0.00;;;;;17.75;78.84;99923.13;4995024;28;45533;-76
2022/10/15 05:12:07;;;;;;;;;0.00;0.00;;;;;17.74;78.67;99932.91;4992617;28;45982;-76
2022/10/15 05:14:34;;;;;;;;;0.00;0.00;;;;;17.77;79.14;99935.19;4994823;28;45668;-76
2022/10/15 05:17:00;;;;;;;;;0.00;0.00;;;;;17.77;78.43;99921.94;4994887;28;45628;-76
2022/10/15 05:19:25;;;;;;;;;0.00;0.00;;;;;17.77;78.98;99927.25;4994599;28;45622;-76
2022/10/15 05:21:50;;;;;;;;;0.00;0.00;;;;;17.80;78.88;99929.56;4994642;28;46217;-76
2022/10/15 05:24:16;;;;;;;;;0.00;0.00;;;;;17.84;78.89;99936.19;4994641;28;45533;-76
2022/10/15 05:26:41;;;;;;;;;0.00;0.00;;;;;17.83;78.56;99931.88;4994864;28;45744;-76
2022/10/15 05:29:07;;;;;;;;;0.00;0.00;;;;;17.86;78.80;99939.50;4994313;28;45666;-76
2022/10/15 05:31:33;;;;;;;;;1.00;0.00;;;;;17.84;79.16;99933.53;4994306;28;45847;-76
2022/10/15 05:34:04;;;;;;;;;0.00;0.00;;;;;17.86;79.01;99931.53;4994453;28;45474;-78
2022/10/15 05:36:29;;;;;;;;;0.00;0.00;;;;;17.87;78.79;99932.34;4994815;28;45898;-77
2022/10/15 05:42:19;;;;;;;;;0.00;0.00;;;;;17.90;78.92;99927.53;4993931;28;46150;-76
2022/10/15 05:44:44;;;;;;;;;0.00;0.00;;;;;17.90;78.84;99926.72;4976284;28;45634;-77
2022/10/15 05:47:11;;;;;;;;;0.00;0.00;;;;;17.91;78.67;99925.72;4994667;28;45740;-75
2022/10/15 05:49:37;;;;;;;;;0.00;0.00;;;;;17.91;78.36;99918.59;4993829;28;45861;-76
2022/10/15 05:52:02;;;;;;;;;0.25;0.00;;;;;17.95;78.80;99927.84;4994141;28;45620;-79
2022/10/15 05:54:28;;;;;;;;;0.00;0.00;;;;;17.95;78.65;99919.06;4994074;28;45425;-76
2022/10/15 05:56:53;;;;;;;;;0.00;0.00;;;;;17.95;78.23;99911.13;4994164;28;45549;-78
2022/10/15 05:59:18;;;;;;;;;0.00;0.00;;;;;17.99;78.37;99915.88;4975970;28;46881;-76
2022/10/15 06:01:44;;;;;;;;;0.00;0.00;;;;;18.01;79.04;99913.06;4994183;28;46308;-76
2022/10/15 06:04:10;;;;;;;;;0.00;0.00;;;;;18.00;78.50;99917.53;4994241;28;45609;-76
2022/10/15 06:06:35;;;;;;;;;0.25;0.25;;;;;18.01;78.84;99916.56;4994485;28;45683;-76
2022/10/15 06:12:22;;;;;;;;;0.75;0.00;;;;;18.03;78.21;99927.78;4992755;28;45884;-76
2022/10/15 06:14:47;;;;;;;;;0.00;0.00;;;;;18.04;78.73;99926.78;4994051;28;45890;-76
2022/10/15 06:17:13;;;;;;;;;0.00;0.00;;;;;18.07;78.30;99930.13;4994053;28;45513;-77
2022/10/15 06:19:38;;;;;;;;;0.00;0.00;;;;;18.07;78.77;99924.81;4993742;28;45513;-79
2022/10/15 06:22:03;;;;;;;;;1.00;0.00;;;;;18.05;79.04;99922.31;4976024;28;48128;-78
2022/10/15 06:27:51;;;;;;;;;0.00;0.00;;;;;18.08;78.89;99927.28;4997190;28;45717;-78
2022/10/15 06:30:16;;;;;;;;;0.00;0.00;;;;;18.07;78.83;99922.16;4996848;28;46887;-78
2022/10/15 06:32:49;;;;;;;;;0.00;0.00;;;;;18.09;79.13;99936.03;4996697;28;46299;-79
2022/10/15 06:35:16;;;;;;;;;0.00;0.00;;;;;18.08;78.99;99937.91;4997070;28;45722;-76
2022/10/15 06:37:41;;;;;;;;;0.00;0.00;;;;;18.10;79.06;99940.34;4996756;28;45657;-79
2022/10/15 06:40:07;;;;;;;;;0.00;0.00;;;;;18.09;78.96;99928.91;4996784;28;45635;-79
2022/10/15 06:42:33;;;;;;;;;0.00;0.00;;;;;18.09;78.47;99931.56;4996873;28;45594;-78
2022/10/15 06:44:58;;;;;;;;;0.00;0.00;;;;;18.10;79.04;99937.69;4997060;28;45560;-79
2022/10/15 06:47:24;;;;;;;;;0.00;0.00;;;;;18.09;79.17;99941.34;4996623;28;45685;-78
2022/10/15 06:49:49;;;;;;;;;0.00;0.00;;;;;18.09;79.13;99938.69;4996778;28;46340;-78
2022/10/15 06:52:14;;;;;;;;;0.00;0.00;;;;;18.10;79.08;99940.34;4996813;28;45945;-78
2022/10/15 06:58:02;;;;;;;;;0.00;0.00;;;;;18.10;79.32;99943.84;4996557;28;45485;-79
2022/10/15 07:00:27;;;;;;;;;0.00;0.00;;;;;18.10;79.46;99953.59;4996635;28;45560;-78
2022/10/15 07:02:53;;;;;;;;;0.00;0.00;;;;;18.09;78.93;99955.44;4996840;28;46187;-77
2022/10/15 07:05:19;;;;;;;;;0.00;0.00;;;;;18.10;78.87;99948.31;4996913;28;45476;-78
2022/10/15 07:07:55;;;;;;;;;0.00;0.00;;;;;18.10;79.24;99946.47;4996607;28;45476;-77
2022/10/15 07:10:22;;;;;;;;;0.00;0.00;;;;;18.13;79.13;99950.63;4978696;28;47808;-77
2022/10/15 07:12:47;;;;;;;;;1.00;0.00;;;;;18.13;78.91;99951.47;4994715;28;46128;-78
2022/10/15 07:15:13;;;;;;;;;0.00;0.00;;;;;18.15;78.75;99956.56;4996681;28;46002;-77
2022/10/15 07:17:38;;;;;;;;;0.00;0.00;;;;;18.14;79.14;99950.44;4996614;28;45835;-78
2022/10/15 07:20:05;;;;;;;;;0.00;0.00;;;;;18.17;79.07;99950.09;4996670;28;46321;-77
2022/10/15 07:22:31;;;;;;;;;0.00;0.00;;;;;18.19;79.18;99958.69;4996465;28;46129;-77
2022/10/15 07:28:18;;;;;;;;;0.00;0.00;;;;;18.24;78.96;99960.84;4996222;28;45596;-78
2022/10/15 07:30:43;;;;;;;;;0.00;0.00;;;;;18.23;79.16;99960.03;4996284;28;45823;-78
2022/10/15 07:33:09;;;;;;;;;0.00;0.00;;;;;18.27;79.05;99965.78;4996323;28;45735;-77
2022/10/15 07:35:36;;;;;;;;;0.00;0.00;;;;;18.28;79.19;99967.44;4995129;28;45644;-77
2022/10/15 07:38:02;;;;;;;;;0.00;0.00;;;;;18.28;79.21;99968.28;4996299;28;45652;-77
2022/10/15 07:40:28;;;;;;;;;0.00;0.00;;;;;18.34;79.15;99982.66;4996151;28;45458;-78
2022/10/15 07:42:56;;;;;;;;;0.00;0.00;;;;;18.32;78.86;99974.03;4996297;28;46418;-78
2022/10/15 07:45:23;;;;;;;;;0.00;0.00;;;;;18.34;79.22;99980.00;4978427;28;45656;-79
2022/10/15 07:47:49;;;;;;;;;0.00;0.00;;;;;18.34;79.19;99985.31;4996052;28;45600;-79
2022/10/15 07:50:14;;;;;;;;;0.00;0.00;;;;;18.33;79.67;99984.50;4995986;28;46634;-78
2022/10/15 07:52:40;;;;;;;;;0.00;0.00;;;;;18.31;79.67;99993.59;4995993;28;46074;-78
2022/10/15 07:58:29;;;;;;;;;0.00;0.00;;;;;18.31;79.63;99998.91;4995843;28;45663;-78
2022/10/15 08:00:59;;;;;;;;;0.00;0.00;;;;;18.29;79.73;100007.06;4978296;28;47245;-78
2022/10/15 08:03:24;;;;;;;;;2.00;2.00;;;;;18.26;80.15;100007.41;4995856;28;46022;-78
2022/10/15 08:05:52;;;;;;;;;2.50;2.50;;;;;18.26;80.21;100022.47;4995751;28;45411;-78
2022/10/15 08:08:18;;;;;;;;;0.00;0.00;;;;;18.20;80.47;100008.06;4995692;28;45687;-77
2022/10/15 08:10:45;;;;;;;;;0.00;0.00;;;;;18.16;80.12;100016.56;4995627;28;46462;-79
2022/10/15 08:13:10;;;;;;;;;0.00;0.00;;;;;18.09;80.49;100015.59;4977710;28;47175;-77
2022/10/15 08:15:39;;;;;;;;;0.00;0.00;;;;;18.05;80.51;100020.41;4995955;28;45636;-77
2022/10/15 08:18:04;;;;;;;;;0.00;0.00;;;;;18.03;80.41;100022.41;4995761;28;45537;-77
2022/10/15 08:20:29;;;;;;;;;0.00;0.00;;;;;17.96;80.54;100016.97;4995408;28;45610;-77
2022/10/15 08:22:55;;;;;;;;;0.00;0.00;;;;;17.95;80.31;100017.13;4995848;28;45605;-77
2022/10/15 08:28:42;;;;;;;;;0.00;0.00;;;;;17.93;80.55;100008.53;4995285;28;45546;-77
2022/10/15 08:31:07;;;;;;;;;0.00;0.00;;;;;17.94;80.81;100015.47;4977399;28;47000;-79
2022/10/15 08:33:35;;;;;;;;;0.00;0.00;;;;;17.99;80.83;100007.84;4995619;28;45601;-76
2022/10/15 08:36:02;;;;;;;;;0.00;0.00;;;;;18.00;80.84;100009.50;4995458;28;45664;-77
2022/10/15 08:38:29;;;;;;;;;0.00;0.00;;;;;18.01;80.38;100013.81;4995253;28;45536;-77
2022/10/15 08:40:58;;;;;;;;;0.00;0.00;;;;;18.04;79.95;100016.94;4995371;28;45685;-77
2022/10/15 08:43:31;;;;;;;;;0.00;0.00;;;;;18.08;80.05;100029.84;4995209;28;46012;-77
2022/10/15 08:46:02;;;;;;;;;0.00;0.00;;;;;18.10;79.46;100030.50;4995054;28;45536;-78
2022/10/15 08:48:32;;;;;;;;;0.00;0.00;;;;;18.16;79.08;100037.78;4995071;28;45753;-78
2022/10/15 08:51:09;;;;;;;;;0.00;0.00;;;;;18.20;79.42;100039.91;4995014;28;45597;-78
2022/10/15 08:53:40;;;;;;;;;0.00;0.00;;;;;18.25;78.92;100048.16;4995041;28;46274;-78
2022/10/15 08:56:16;;;;;;;;;0.00;0.00;;;;;18.28;79.22;100042.53;4995091;28;45747;-77
2022/10/15 08:59:07;;;;;;;;;0.00;0.00;;;;;18.32;78.92;100049.13;4994986;28;45541;-77
2022/10/15 09:01:51;;;;;;;;;0.00;0.00;;;;;18.33;78.77;100034.88;4994963;28;45635;-77
2022/10/15 09:04:39;;;;;;;;;0.00;0.00;;;;;18.36;78.70;100039.84;4994981;28;46526;-78
2022/10/15 09:07:26;;;;;;;;;0.50;0.50;;;;;18.40;78.43;100035.84;4994962;28;45628;-78
2022/10/15 09:10:16;;;;;;;;;1.00;0.00;;;;;18.45;78.20;100046.78;4995078;28;45489;-78
2022/10/15 09:12:46;;;;;;;;;7.50;7.50;;;;;18.48;78.40;100055.38;4994271;28;46710;-78
2022/10/15 09:15:16;;;;;;;;;1.50;0.00;;;;;18.50;77.92;100053.38;4994788;28;45621;-78
2022/10/15 09:17:46;;;;;;;;;4.25;3.00;;;;;18.53;78.21;100060.97;4994602;28;45770;-78
2022/10/15 09:20:24;;;;;;;;;0.75;0.75;;;;;18.53;78.23;100056.50;4994955;28;45530;-78
2022/10/15 09:22:50;;;;;;;;;0.00;0.00;;;;;18.60;78.22;100068.13;4994667;28;46253;-78
2022/10/15 09:25:19;;;;;;;;;0.00;0.00;;;;;18.62;77.65;100062.63;4994655;28;46160;-77
2022/10/15 09:27:48;;;;;;;;;4.50;4.25;;;;;18.66;77.47;100070.06;4994381;28;45635;-78
2022/10/15 09:30:35;;;;;;;;;8.75;8.50;;;;;18.70;77.74;100073.19;4994621;28;45637;-79
2022/10/15 09:33:19;;;;;;;;;1.00;1.00;;;;;18.72;77.14;100076.50;4992812;28;46572;-78
2022/10/15 09:36:08;;;;;;;;;2.25;0.50;;;;;18.73;77.41;100073.66;4994373;28;46038;-78
2022/10/15 09:41:57;;;;;;;;;0.75;0.00;;;;;18.83;76.54;100076.13;4992504;28;45890;-78
2022/10/15 09:44:35;;;;;;;;;0.00;0.00;;;;;18.84;76.15;100081.22;4914339;28;45727;-78
2022/10/15 09:47:00;;;;;;;;;0.00;0.00;;;;;18.88;76.16;100086.22;4914401;28;45690;-79
2022/10/15 09:49:27;;;;;;;;;1.00;0.00;;;;;18.93;76.03;100090.00;4913502;28;45637;-74
2022/10/15 09:52:01;;;;;;;;;1.00;0.00;;;;;19.02;75.68;100098.72;4914054;28;45566;-74
2022/10/15 09:57:52;;;;;;;;;0.00;0.00;;;;;19.12;75.30;100105.44;4913061;28;45827;-75
2022/10/15 10:00:17;;;;;;;;;0.00;0.00;;;;;19.15;75.21;100104.28;4916922;28;45747;-73
2022/10/15 10:02:42;;;;;;;;;0.00;0.00;;;;;19.17;74.78;100112.88;4916952;28;45496;-75
2022/10/15 10:05:38;;;;;;;;;0.00;0.00;;;;;19.19;74.03;100132.13;4917239;28;47248;-74
2022/10/15 10:08:30;;;;;;;;;0.75;0.00;;;;;19.18;74.02;100141.94;4859998;29;47247;-76
2022/10/15 10:14:27;;;;;;;;;0.00;0.00;;;;;19.24;73.82;100135.09;4859441;29;45953;-71
2022/10/15 10:17:19;;;;;;;;;0.50;0.00;;;;;19.31;72.98;100135.22;4859683;29;46498;-71
2022/10/15 10:20:01;;;;;;;;;0.00;0.00;;;;;19.31;72.73;100133.38;4862308;29;47341;-73
2022/10/15 10:22:26;;;;;;;;;0.00;0.00;;;;;19.30;72.79;100142.34;4898124;29;45750;-73
2022/10/15 10:28:23;;;;;;;;;0.00;0.00;;;;;19.37;72.45;100140.66;4898001;29;45953;-71
2022/10/15 10:30:54;;;;;;;;;0.50;0.50;;;;;19.44;71.64;100146.06;4897692;29;46263;-73
2022/10/15 10:33:40;;;;;;;;;0.00;0.00;;;;;19.46;71.53;100152.91;4898264;29;45699;-75
2022/10/15 10:36:17;;;;;;;;;0.50;0.00;;;;;19.46;71.26;100147.59;4885428;29;46007;-75
2022/10/15 10:38:55;;;;;;;;;0.00;0.00;;;;;19.47;71.19;100153.72;4898254;29;45586;-75
2022/10/15 10:44:45;;;;;;;;;0.00;0.00;;;;;19.51;70.86;100144.41;4944984;28;45718;-73
2022/10/15 10:47:24;;;;;;;;;0.00;0.00;;;;;19.52;70.45;100146.06;4977221;28;45692;-74
2022/10/15 10:49:53;;;;;;;;;0.00;0.00;;;;;19.54;70.10;100147.50;4975737;28;46588;-73
2022/10/15 10:52:20;;;;;;;;;0.00;0.00;;;;;19.54;70.12;100144.06;4955902;28;47837;-73
2022/10/15 10:54:52;;;;;;;;;0.00;0.00;;;;;19.53;69.79;100145.88;4975241;28;45681;-74
2022/10/15 10:57:26;;;;;;;;;0.00;0.00;;;;;19.58;70.09;100146.16;4974056;28;45759;-71
2022/10/15 10:59:55;;;;;;;;;0.00;0.00;;;;;19.63;70.31;100158.91;4975579;28;47150;-75
2022/10/15 11:02:20;;;;;;;;;0.00;0.00;;;;;19.62;69.80;100168.72;4976967;28;46296;-77
2022/10/15 11:04:46;;;;;;;;;0.50;0.00;;;;;19.62;70.03;100174.03;4977743;28;45938;-81
2022/10/15 11:07:27;;;;;;;;;0.00;0.00;;;;;19.57;69.48;100168.44;4975617;28;45836;-77
2022/10/15 11:10:21;;;;;;;;;0.00;0.00;;;;;19.54;69.88;100167.97;4975232;28;47420;-82
2022/10/15 11:13:18;;;;;;;;;0.00;0.00;;;;;19.49;70.12;100175.63;4980271;28;46010;-81
2022/10/15 11:16:20;;;;;;;;;0.00;0.00;;;;;19.40;70.29;100185.47;4996397;28;45738;-82
2022/10/15 11:19:12;;;;;;;;;0.00;0.00;;;;;19.31;70.47;100172.41;4996069;28;45786;-78
2022/10/15 11:22:07;;;;;;;;;0.00;0.00;;;;;19.27;70.92;100188.69;4996283;28;45529;-76
2022/10/15 11:27:53;;;;;;;;;0.00;0.00;;;;;19.12;70.23;100193.09;4996678;28;45595;-80
2022/10/15 11:30:39;;;;;;;;;0.00;0.00;;;;;19.12;70.14;100187.78;4997868;28;45694;-79
2022/10/15 11:33:10;;;;;;;;;0.75;0.00;;;;;19.11;69.36;100180.81;4996097;28;45674;-75
2022/10/15 11:35:45;;;;;;;;;0.50;0.00;;;;;19.09;68.51;100193.44;4997090;28;46663;-80
2022/10/15 11:38:34;;;;;;;;;0.00;0.00;;;;;19.06;67.91;100196.44;4995483;28;45568;-79
2022/10/15 11:45:02;;;;;;;;;0.00;0.00;;;;;19.03;66.66;100174.72;4995699;28;45628;-78
2022/10/15 11:47:43;;;;;;;;;0.00;0.00;;;;;19.00;65.84;100175.09;4995343;28;46114;-77
2022/10/15 11:50:26;;;;;;;;;0.00;0.00;;;;;18.96;66.21;100179.06;4996052;28;45558;-79
2022/10/15 11:53:05;;;;;;;;;0.00;0.00;;;;;18.96;65.89;100177.25;4994266;28;45707;-77
2022/10/15 11:55:48;;;;;;;;;0.00;0.00;;;;;18.98;65.94;100185.88;4994870;28;45514;-75
2022/10/15 11:58:27;;;;;;;;;0.00;0.00;;;;;19.01;66.11;100184.69;4995912;28;46714;-79
2022/10/15 12:00:59;;;;;;;;;0.00;0.00;;;;;19.02;65.58;100178.38;4995548;28;45727;-82
2022/10/15 12:03:34;;;;;;;;;0.00;0.00;;;;;19.09;65.61;100189.97;4996435;28;45612;-84
2022/10/15 12:06:06;;;;;;;;;0.00;0.00;;;;;19.11;65.49;100198.59;4996514;28;46499;-81
2022/10/15 12:08:38;;;;;;;;;0.00;0.00;;;;;19.08;65.90;100202.41;4996213;28;45684;-85
2022/10/15 12:11:23;;;;;;;;;0.00;0.00;;;;;19.12;66.03;100200.22;4980063;28;45719;-76
2022/10/15 12:14:10;;;;;;;;;0.00;0.00;;;;;19.17;66.29;100201.34;4996615;28;45753;-77
2022/10/15 12:17:03;;;;;;;;;0.00;0.00;;;;;19.19;65.95;100188.75;4996501;28;45762;-78
2022/10/15 12:19:39;;;;;;;;;0.00;0.00;;;;;19.23;65.90;100202.50;4997035;28;46175;-90
2022/10/15 12:22:10;;;;;;;;;0.00;0.00;;;;;19.24;65.91;100191.69;4996425;28;45657;-86
2022/10/15 12:24:39;;;;;;;;;0.00;0.00;;;;;19.32;65.98;100190.00;4978709;28;45903;-81
2022/10/15 12:27:17;;;;;;;;;0.00;0.00;;;;;19.31;65.83;100205.13;4995513;28;46343;-85
2022/10/15 12:29:58;;;;;;;;;0.25;0.00;;;;;19.31;65.80;100189.19;4977690;28;47089;-84
2022/10/15 12:32:26;;;;;;;;;0.00;0.00;;;;;19.32;65.84;100197.97;4994307;28;45669;-79
2022/10/15 12:34:55;;;;;;;;;0.00;0.00;;;;;19.29;66.04;100197.31;4995544;28;45411;-82
2022/10/15 12:37:23;;;;;;;;;1.00;0.00;;;;;19.29;66.27;100207.94;4995222;28;45520;-83
2022/10/15 12:39:56;;;;;;;;;0.00;0.00;;;;;19.25;66.12;100181.91;4994341;28;46155;-80
2022/10/15 12:42:32;;;;;;;;;0.00;0.00;;;;;19.24;66.08;100183.72;4995357;28;45602;-85
2022/10/15 12:45:01;;;;;;;;;0.00;0.00;;;;;19.24;66.29;100180.25;4995452;28;45716;-84
2022/10/15 12:47:53;;;;;;;;;1.00;0.00;;;;;19.27;66.56;100180.72;4995133;28;46449;-81
2022/10/15 12:50:23;;;;;;;;;0.00;0.00;;;;;19.30;66.67;100187.53;4995271;28;45827;-84
2022/10/15 12:53:01;;;;;;;;;0.50;0.00;;;;;19.31;66.73;100180.38;4995240;28;45624;-80
2022/10/15 12:58:34;;;;;;;;;0.00;0.00;;;;;19.44;66.20;100176.13;4993885;28;45611;-85
2022/10/15 13:01:25;;;;;;;;;0.25;0.00;;;;;19.47;66.50;100165.19;4993453;28;46275;-82
2022/10/15 13:03:54;;;;;;;;;0.00;0.00;;;;;19.48;66.16;100166.84;4994361;28;45638;-81
2022/10/15 13:06:20;;;;;;;;;0.00;0.00;;;;;19.51;66.09;100169.13;4994706;28;45669;-84
2022/10/15 13:09:06;;;;;;;;;0.00;0.00;;;;;19.52;66.15;100157.50;4994306;28;45671;-84
2022/10/15 13:15:03;;;;;;;;;1.00;1.00;;;;;19.64;65.35;100155.25;4993563;28;45885;-84